sensor_id;sensor_type;location;lat;lon;timestamp;temperature;humidity
1800;DHT22;919;48.274;12.292;2023-06-14T00:00:00;11.50;99.90
1800;DHT22;919;48.274;12.292;2023-06-14T00:02:29;11.50;99.90
1800;DHT22;919;48.274;12.292;2023-06-14T00:04:56;11.50;99.90
1800;DHT22;919;48.274;12.292;2023-06-14T00:07:34;11.40;99.90
1800;DHT22;919;48.274;12.292;2023-06-14T00:10:02;11.30;99.90
1800;DHT22;919;48.274;12.292;2023-06-14T00:12:30;11.30;99.90
1800;DHT22;919;48.274;12.292;2023-06-14T00:14:57;11.30;99.90
1800;DHT22;919;48.274;12.292;2023-06-14T00:17:24;11.30;99.90
1800;DHT22;919;48.274;12.292;2023-06-14T00:19:55;11.30;99.90
1800;DHT22;919;48.274;12.292;2023-06-14T00:22:23;11.20;99.90
1800;DHT22;919;48.274;12.292;2023-06-14T00:24:50;11.20;99.90
1800;DHT22;919;48.274;12.292;2023-06-14T00:27:18;11.20;99.90
1800;DHT22;919;48.274;12.292;2023-06-14T00:29:45;11.20;99.90
1800;DHT22;919;48.274;12.292;2023-06-14T00:32:11;11.20;99.90
1800;DHT22;919;48.274;12.292;2023-06-14T00:34:38;11.20;99.90
1800;DHT22;919;48.274;12.292;2023-06-14T00:37:05;11.10;99.90
1800;DHT22;919;48.274;12.292;2023-06-14T00:39:32;11.20;99.90
1800;DHT22;919;48.274;12.292;2023-06-14T00:41:58;11.20;99.90
1800;DHT22;919;48.274;12.292;2023-06-14T00:44:26;11.10;99.90
1800;DHT22;919;48.274;12.292;2023-06-14T00:46:53;11.00;99.90
1800;DHT22;919;48.274;12.292;2023-06-14T00:49:20;11.00;99.90
1800;DHT22;919;48.274;12.292;2023-06-14T00:51:47;11.10;99.90
1800;DHT22;919;48.274;12.292;2023-06-14T00:54:14;11.10;99.90
1800;DHT22;919;48.274;12.292;2023-06-14T00:56:43;11.00;99.90
1800;DHT22;919;48.274;12.292;2023-06-14T00:59:11;10.90;99.90
1800;DHT22;919;48.274;12.292;2023-06-14T01:01:39;10.90;99.90
1800;DHT22;919;48.274;12.292;2023-06-14T01:04:06;11.00;99.90
1800;DHT22;919;48.274;12.292;2023-06-14T01:06:39;10.90;99.90
1800;DHT22;919;48.274;12.292;2023-06-14T01:09:15;11.00;99.90
1800;DHT22;919;48.274;12.292;2023-06-14T01:11:50;10.90;99.90
1800;DHT22;919;48.274;12.292;2023-06-14T01:14:18;10.90;99.90
1800;DHT22;919;48.274;12.292;2023-06-14T01:16:46;10.80;99.90
1800;DHT22;919;48.274;12.292;2023-06-14T01:19:15;10.80;99.90
1800;DHT22;919;48.274;12.292;2023-06-14T01:21:42;10.70;99.90
1800;DHT22;919;48.274;12.292;2023-06-14T01:24:10;10.50;99.90
1800;DHT22;919;48.274;12.292;2023-06-14T01:26:38;10.50;99.90
1800;DHT22;919;48.274;12.292;2023-06-14T01:29:11;10.50;99.90
1800;DHT22;919;48.274;12.292;2023-06-14T01:31:43;10.40;99.90
1800;DHT22;919;48.274;12.292;2023-06-14T01:34:11;10.30;99.90
1800;DHT22;919;48.274;12.292;2023-06-14T01:36:40;10.30;99.90
1800;DHT22;919;48.274;12.292;2023-06-14T01:39:09;10.40;99.90
1800;DHT22;919;48.274;12.292;2023-06-14T01:41:37;10.50;99.90
1800;DHT22;919;48.274;12.292;2023-06-14T01:44:05;10.50;99.90
1800;DHT22;919;48.274;12.292;2023-06-14T01:46:31;10.50;99.90
1800;DHT22;919;48.274;12.292;2023-06-14T01:48:59;10.60;99.90
1800;DHT22;919;48.274;12.292;2023-06-14T01:51:25;10.50;99.90
1800;DHT22;919;48.274;12.292;2023-06-14T01:53:52;10.40;99.90
1800;DHT22;919;48.274;12.292;2023-06-14T01:56:20;10.40;99.90
1800;DHT22;919;48.274;12.292;2023-06-14T01:58:47;10.30;99.90
1800;DHT22;919;48.274;12.292;2023-06-14T02:01:14;10.30;99.90
1800;DHT22;919;48.274;12.292;2023-06-14T02:03:41;10.20;99.90
1800;DHT22;919;48.274;12.292;2023-06-14T02:06:10;10.10;99.90
1800;DHT22;919;48.274;12.292;2023-06-14T02:08:37;10.20;99.90
1800;DHT22;919;48.274;12.292;2023-06-14T02:11:04;10.30;99.90
1800;DHT22;919;48.274;12.292;2023-06-14T02:13:32;10.30;99.90
1800;DHT22;919;48.274;12.292;2023-06-14T02:16:00;10.20;99.90
1800;DHT22;919;48.274;12.292;2023-06-14T02:18:26;10.00;99.90
1800;DHT22;919;48.274;12.292;2023-06-14T02:20:53;10.10;99.90
1800;DHT22;919;48.274;12.292;2023-06-14T02:23:20;10.00;99.90
1800;DHT22;919;48.274;12.292;2023-06-14T02:25:47;10.00;99.90
1800;DHT22;919;48.274;12.292;2023-06-14T02:28:14;10.00;99.90
1800;DHT22;919;48.274;12.292;2023-06-14T02:30:42;9.90;99.90
1800;DHT22;919;48.274;12.292;2023-06-14T02:33:08;9.90;99.90
1800;DHT22;919;48.274;12.292;2023-06-14T02:35:38;9.80;99.90
1800;DHT22;919;48.274;12.292;2023-06-14T02:38:04;9.80;99.90
1800;DHT22;919;48.274;12.292;2023-06-14T02:40:31;9.80;99.90
1800;DHT22;919;48.274;12.292;2023-06-14T02:42:58;9.60;99.90
1800;DHT22;919;48.274;12.292;2023-06-14T02:45:25;9.80;99.90
1800;DHT22;919;48.274;12.292;2023-06-14T02:47:53;9.70;99.90
1800;DHT22;919;48.274;12.292;2023-06-14T02:50:21;9.60;99.90
1800;DHT22;919;48.274;12.292;2023-06-14T02:52:49;9.60;99.90
1800;DHT22;919;48.274;12.292;2023-06-14T02:55:16;9.60;99.90
1800;DHT22;919;48.274;12.292;2023-06-14T02:57:42;9.60;99.90
1800;DHT22;919;48.274;12.292;2023-06-14T03:00:10;9.70;99.90
1800;DHT22;919;48.274;12.292;2023-06-14T03:02:38;9.60;99.90
1800;DHT22;919;48.274;12.292;2023-06-14T03:05:07;9.60;99.90
1800;DHT22;919;48.274;12.292;2023-06-14T03:07:35;9.60;99.90
1800;DHT22;919;48.274;12.292;2023-06-14T03:10:07;9.60;99.90
1800;DHT22;919;48.274;12.292;2023-06-14T03:12:34;9.60;99.90
1800;DHT22;919;48.274;12.292;2023-06-14T03:15:02;9.70;99.90
1800;DHT22;919;48.274;12.292;2023-06-14T03:17:29;9.60;99.90
1800;DHT22;919;48.274;12.292;2023-06-14T03:19:59;9.60;99.90
1800;DHT22;919;48.274;12.292;2023-06-14T03:22:27;9.70;99.90
1800;DHT22;919;48.274;12.292;2023-06-14T03:24:54;9.60;99.90
1800;DHT22;919;48.274;12.292;2023-06-14T03:27:20;9.50;99.90
1800;DHT22;919;48.274;12.292;2023-06-14T03:29:47;9.60;99.90
1800;DHT22;919;48.274;12.292;2023-06-14T03:32:14;9.70;99.90
1800;DHT22;919;48.274;12.292;2023-06-14T03:34:40;9.70;99.90
1800;DHT22;919;48.274;12.292;2023-06-14T03:37:08;9.60;99.90
1800;DHT22;919;48.274;12.292;2023-06-14T03:39:36;9.60;99.90
1800;DHT22;919;48.274;12.292;2023-06-14T03:42:03;9.60;99.90
1800;DHT22;919;48.274;12.292;2023-06-14T03:44:30;9.70;99.90
1800;DHT22;919;48.274;12.292;2023-06-14T03:46:57;9.80;99.90
1800;DHT22;919;48.274;12.292;2023-06-14T03:49:24;9.90;99.90
1800;DHT22;919;48.274;12.292;2023-06-14T03:51:51;10.00;99.90
1800;DHT22;919;48.274;12.292;2023-06-14T03:54:18;10.10;99.90
1800;DHT22;919;48.274;12.292;2023-06-14T03:56:46;10.10;99.90
1800;DHT22;919;48.274;12.292;2023-06-14T03:59:12;10.20;99.90
1800;DHT22;919;48.274;12.292;2023-06-14T04:01:39;10.30;99.90
1800;DHT22;919;48.274;12.292;2023-06-14T04:04:12;10.20;99.90
1800;DHT22;919;48.274;12.292;2023-06-14T04:06:38;10.30;99.90
1800;DHT22;919;48.274;12.292;2023-06-14T04:09:05;10.30;99.90
1800;DHT22;919;48.274;12.292;2023-06-14T04:11:32;10.40;99.90
1800;DHT22;919;48.274;12.292;2023-06-14T04:14:02;10.50;99.90
1800;DHT22;919;48.274;12.292;2023-06-14T04:16:29;10.50;99.90
1800;DHT22;919;48.274;12.292;2023-06-14T04:18:55;10.60;99.90
1800;DHT22;919;48.274;12.292;2023-06-14T04:21:23;10.70;99.90
1800;DHT22;919;48.274;12.292;2023-06-14T04:23:51;10.80;99.90
1800;DHT22;919;48.274;12.292;2023-06-14T04:26:20;10.90;99.90
1800;DHT22;919;48.274;12.292;2023-06-14T04:28:49;11.10;99.90
1800;DHT22;919;48.274;12.292;2023-06-14T04:31:17;11.20;99.90
1800;DHT22;919;48.274;12.292;2023-06-14T04:33:44;11.30;99.90
1800;DHT22;919;48.274;12.292;2023-06-14T04:36:12;11.40;99.90
1800;DHT22;919;48.274;12.292;2023-06-14T04:38:39;11.60;99.90
1800;DHT22;919;48.274;12.292;2023-06-14T04:41:06;11.60;99.90
1800;DHT22;919;48.274;12.292;2023-06-14T04:43:37;11.50;99.90
1800;DHT22;919;48.274;12.292;2023-06-14T04:46:04;11.50;99.90
1800;DHT22;919;48.274;12.292;2023-06-14T04:48:36;11.60;99.90
1800;DHT22;919;48.274;12.292;2023-06-14T04:51:05;11.80;99.90
1800;DHT22;919;48.274;12.292;2023-06-14T04:53:32;12.00;99.90
1800;DHT22;919;48.274;12.292;2023-06-14T04:55:59;12.20;99.90
1800;DHT22;919;48.274;12.292;2023-06-14T04:58:26;12.40;99.90
1800;DHT22;919;48.274;12.292;2023-06-14T05:00:54;12.50;99.90
1800;DHT22;919;48.274;12.292;2023-06-14T05:03:21;12.70;99.90
1800;DHT22;919;48.274;12.292;2023-06-14T05:05:50;12.80;99.90
1800;DHT22;919;48.274;12.292;2023-06-14T05:08:18;13.00;99.90
1800;DHT22;919;48.274;12.292;2023-06-14T05:10:45;13.10;99.90
1800;DHT22;919;48.274;12.292;2023-06-14T05:13:12;13.20;99.90
1800;DHT22;919;48.274;12.292;2023-06-14T05:15:39;13.30;99.90
1800;DHT22;919;48.274;12.292;2023-06-14T05:18:06;13.40;99.90
1800;DHT22;919;48.274;12.292;2023-06-14T05:20:34;13.50;99.90
1800;DHT22;919;48.274;12.292;2023-06-14T05:23:03;13.60;99.90
1800;DHT22;919;48.274;12.292;2023-06-14T05:25:30;13.80;99.90
1800;DHT22;919;48.274;12.292;2023-06-14T05:27:57;13.90;99.90
1800;DHT22;919;48.274;12.292;2023-06-14T05:30:24;14.00;99.90
1800;DHT22;919;48.274;12.292;2023-06-14T05:32:51;14.30;99.90
1800;DHT22;919;48.274;12.292;2023-06-14T05:35:18;14.60;99.90
1800;DHT22;919;48.274;12.292;2023-06-14T05:37:47;14.60;99.90
1800;DHT22;919;48.274;12.292;2023-06-14T05:40:15;14.70;99.90
1800;DHT22;919;48.274;12.292;2023-06-14T05:42:43;14.80;99.90
1800;DHT22;919;48.274;12.292;2023-06-14T05:45:10;14.90;99.90
1800;DHT22;919;48.274;12.292;2023-06-14T05:47:37;15.00;99.90
1800;DHT22;919;48.274;12.292;2023-06-14T05:50:04;15.20;99.90
1800;DHT22;919;48.274;12.292;2023-06-14T05:52:31;15.40;99.90
1800;DHT22;919;48.274;12.292;2023-06-14T05:55:07;15.40;99.90
1800;DHT22;919;48.274;12.292;2023-06-14T05:57:35;15.50;99.90
1800;DHT22;919;48.274;12.292;2023-06-14T06:00:03;15.60;99.90
1800;DHT22;919;48.274;12.292;2023-06-14T06:02:35;15.70;99.90
1800;DHT22;919;48.274;12.292;2023-06-14T06:05:02;15.90;99.90
1800;DHT22;919;48.274;12.292;2023-06-14T06:07:28;16.00;99.90
1800;DHT22;919;48.274;12.292;2023-06-14T06:09:55;16.00;99.90
1800;DHT22;919;48.274;12.292;2023-06-14T06:12:22;16.20;99.90
1800;DHT22;919;48.274;12.292;2023-06-14T06:14:50;16.30;99.90
1800;DHT22;919;48.274;12.292;2023-06-14T06:17:17;16.30;99.90
1800;DHT22;919;48.274;12.292;2023-06-14T06:19:44;16.40;99.90
1800;DHT22;919;48.274;12.292;2023-06-14T06:22:11;16.50;99.90
1800;DHT22;919;48.274;12.292;2023-06-14T06:24:37;16.60;99.90
1800;DHT22;919;48.274;12.292;2023-06-14T06:27:05;16.70;99.90
1800;DHT22;919;48.274;12.292;2023-06-14T06:29:33;16.90;99.90
1800;DHT22;919;48.274;12.292;2023-06-14T06:32:02;17.00;99.90
1800;DHT22;919;48.274;12.292;2023-06-14T06:34:28;17.00;99.90
1800;DHT22;919;48.274;12.292;2023-06-14T06:36:55;17.00;99.90
1800;DHT22;919;48.274;12.292;2023-06-14T06:39:22;17.10;99.90
1800;DHT22;919;48.274;12.292;2023-06-14T06:41:49;17.20;99.90
1800;DHT22;919;48.274;12.292;2023-06-14T06:44:15;17.30;99.90
1800;DHT22;919;48.274;12.292;2023-06-14T06:46:43;17.40;99.90
1800;DHT22;919;48.274;12.292;2023-06-14T06:49:11;17.40;99.90
1800;DHT22;919;48.274;12.292;2023-06-14T06:51:40;17.40;99.90
1800;DHT22;919;48.274;12.292;2023-06-14T06:54:08;17.60;99.90
1800;DHT22;919;48.274;12.292;2023-06-14T06:56:35;17.80;99.90
1800;DHT22;919;48.274;12.292;2023-06-14T06:59:01;17.70;99.90
1800;DHT22;919;48.274;12.292;2023-06-14T07:01:28;17.70;99.90
1800;DHT22;919;48.274;12.292;2023-06-14T07:03:55;17.70;99.90
1800;DHT22;919;48.274;12.292;2023-06-14T07:06:23;17.80;99.90
1800;DHT22;919;48.274;12.292;2023-06-14T07:08:52;17.80;99.90
1800;DHT22;919;48.274;12.292;2023-06-14T07:11:19;17.90;99.90
1800;DHT22;919;48.274;12.292;2023-06-14T07:13:46;18.00;99.90
1800;DHT22;919;48.274;12.292;2023-06-14T07:16:13;17.90;99.90
1800;DHT22;919;48.274;12.292;2023-06-14T07:18:39;17.90;99.90
1800;DHT22;919;48.274;12.292;2023-06-14T07:21:06;17.90;99.90
1800;DHT22;919;48.274;12.292;2023-06-14T07:23:34;17.90;99.90
1800;DHT22;919;48.274;12.292;2023-06-14T07:26:01;18.00;99.90
1800;DHT22;919;48.274;12.292;2023-06-14T07:28:28;18.10;99.90
1800;DHT22;919;48.274;12.292;2023-06-14T07:30:55;18.20;99.90
1800;DHT22;919;48.274;12.292;2023-06-14T07:33:21;18.30;99.90
1800;DHT22;919;48.274;12.292;2023-06-14T07:35:48;18.50;99.90
1800;DHT22;919;48.274;12.292;2023-06-14T07:38:16;18.60;99.90
1800;DHT22;919;48.274;12.292;2023-06-14T07:40:44;18.70;99.90
1800;DHT22;919;48.274;12.292;2023-06-14T07:43:11;18.60;99.90
1800;DHT22;919;48.274;12.292;2023-06-14T07:45:37;18.60;99.90
1800;DHT22;919;48.274;12.292;2023-06-14T07:48:04;18.70;99.90
1800;DHT22;919;48.274;12.292;2023-06-14T07:50:31;18.70;99.90
1800;DHT22;919;48.274;12.292;2023-06-14T07:52:58;18.70;99.90
1800;DHT22;919;48.274;12.292;2023-06-14T07:55:24;18.70;99.90
1800;DHT22;919;48.274;12.292;2023-06-14T07:57:53;18.70;99.90
1800;DHT22;919;48.274;12.292;2023-06-14T08:00:20;18.80;99.90
1800;DHT22;919;48.274;12.292;2023-06-14T08:02:47;18.70;99.90
1800;DHT22;919;48.274;12.292;2023-06-14T08:05:13;18.70;99.90
1800;DHT22;919;48.274;12.292;2023-06-14T08:07:40;18.80;99.90
1800;DHT22;919;48.274;12.292;2023-06-14T08:10:08;18.90;99.90
1800;DHT22;919;48.274;12.292;2023-06-14T08:12:35;18.90;99.90
1800;DHT22;919;48.274;12.292;2023-06-14T08:15:05;19.00;99.90
1800;DHT22;919;48.274;12.292;2023-06-14T08:17:32;18.90;99.90
1800;DHT22;919;48.274;12.292;2023-06-14T08:19:59;19.00;99.90
1800;DHT22;919;48.274;12.292;2023-06-14T08:22:26;19.00;99.90
1800;DHT22;919;48.274;12.292;2023-06-14T08:24:57;19.10;99.90
1800;DHT22;919;48.274;12.292;2023-06-14T08:27:23;19.20;99.90
1800;DHT22;919;48.274;12.292;2023-06-14T08:29:50;19.30;99.90
1800;DHT22;919;48.274;12.292;2023-06-14T08:32:18;19.40;99.90
1800;DHT22;919;48.274;12.292;2023-06-14T08:34:45;19.50;99.90
1800;DHT22;919;48.274;12.292;2023-06-14T08:37:12;19.60;99.90
1800;DHT22;919;48.274;12.292;2023-06-14T08:39:39;19.60;99.90
1800;DHT22;919;48.274;12.292;2023-06-14T08:42:07;19.60;99.90
1800;DHT22;919;48.274;12.292;2023-06-14T08:44:35;19.70;99.90
1800;DHT22;919;48.274;12.292;2023-06-14T08:47:02;19.90;99.90
1800;DHT22;919;48.274;12.292;2023-06-14T08:50:45;20.00;99.90
1800;DHT22;919;48.274;12.292;2023-06-14T08:53:14;20.10;99.90
1800;DHT22;919;48.274;12.292;2023-06-14T08:55:45;20.30;99.90
1800;DHT22;919;48.274;12.292;2023-06-14T08:58:13;20.20;99.90
1800;DHT22;919;48.274;12.292;2023-06-14T09:01:49;20.30;99.90
1800;DHT22;919;48.274;12.292;2023-06-14T09:04:18;20.40;99.90
1800;DHT22;919;48.274;12.292;2023-06-14T09:06:45;20.50;99.90
1800;DHT22;919;48.274;12.292;2023-06-14T09:09:11;20.70;99.90
1800;DHT22;919;48.274;12.292;2023-06-14T09:11:42;20.90;99.90
1800;DHT22;919;48.274;12.292;2023-06-14T09:14:08;21.10;99.90
1800;DHT22;919;48.274;12.292;2023-06-14T09:16:36;21.10;99.90
1800;DHT22;919;48.274;12.292;2023-06-14T09:19:04;20.90;99.90
1800;DHT22;919;48.274;12.292;2023-06-14T09:21:34;20.70;99.90
1800;DHT22;919;48.274;12.292;2023-06-14T09:24:01;20.70;99.90
1800;DHT22;919;48.274;12.292;2023-06-14T09:26:29;20.90;99.90
1800;DHT22;919;48.274;12.292;2023-06-14T09:28:56;20.80;99.90
1800;DHT22;919;48.274;12.292;2023-06-14T09:31:24;20.90;99.90
1800;DHT22;919;48.274;12.292;2023-06-14T09:33:52;21.00;99.90
1800;DHT22;919;48.274;12.292;2023-06-14T09:36:23;21.20;99.90
1800;DHT22;919;48.274;12.292;2023-06-14T09:38:53;21.40;99.90
1800;DHT22;919;48.274;12.292;2023-06-14T09:41:20;21.60;99.90
1800;DHT22;919;48.274;12.292;2023-06-14T09:43:47;21.80;99.90
1800;DHT22;919;48.274;12.292;2023-06-14T09:46:15;21.90;99.90
1800;DHT22;919;48.274;12.292;2023-06-14T09:48:42;21.90;99.90
1800;DHT22;919;48.274;12.292;2023-06-14T09:51:10;22.10;99.90
1800;DHT22;919;48.274;12.292;2023-06-14T09:53:42;22.30;99.90
1800;DHT22;919;48.274;12.292;2023-06-14T09:56:10;22.60;99.90
1800;DHT22;919;48.274;12.292;2023-06-14T09:58:39;22.80;99.90
1800;DHT22;919;48.274;12.292;2023-06-14T10:01:08;23.00;99.90
1800;DHT22;919;48.274;12.292;2023-06-14T10:05:11;22.90;99.90
1800;DHT22;919;48.274;12.292;2023-06-14T10:07:42;22.80;99.90
1800;DHT22;919;48.274;12.292;2023-06-14T10:10:10;22.90;99.90
1800;DHT22;919;48.274;12.292;2023-06-14T10:12:38;23.10;99.90
1800;DHT22;919;48.274;12.292;2023-06-14T10:15:07;23.30;99.90
1800;DHT22;919;48.274;12.292;2023-06-14T10:17:39;23.20;99.90
1800;DHT22;919;48.274;12.292;2023-06-14T10:20:21;23.30;99.90
1800;DHT22;919;48.274;12.292;2023-06-14T10:22:58;23.50;99.90
1800;DHT22;919;48.274;12.292;2023-06-14T10:25:29;23.70;99.90
1800;DHT22;919;48.274;12.292;2023-06-14T10:28:03;23.90;99.90
1800;DHT22;919;48.274;12.292;2023-06-14T10:31:04;23.80;99.90
1800;DHT22;919;48.274;12.292;2023-06-14T10:33:31;24.10;99.90
1800;DHT22;919;48.274;12.292;2023-06-14T10:38:57;23.60;99.90
1800;DHT22;919;48.274;12.292;2023-06-14T10:41:25;23.40;99.90
1800;DHT22;919;48.274;12.292;2023-06-14T10:44:02;23.60;99.90
1800;DHT22;919;48.274;12.292;2023-06-14T10:46:36;24.00;99.90
1800;DHT22;919;48.274;12.292;2023-06-14T10:49:03;24.10;99.90
1800;DHT22;919;48.274;12.292;2023-06-14T10:51:38;24.40;99.90
1800;DHT22;919;48.274;12.292;2023-06-14T10:54:12;24.40;99.90
1800;DHT22;919;48.274;12.292;2023-06-14T10:56:45;24.20;99.90
1800;DHT22;919;48.274;12.292;2023-06-14T10:59:12;24.20;99.90
1800;DHT22;919;48.274;12.292;2023-06-14T11:01:45;24.40;99.90
1800;DHT22;919;48.274;12.292;2023-06-14T11:04:17;24.50;99.90
1800;DHT22;919;48.274;12.292;2023-06-14T11:06:50;24.20;99.90
1800;DHT22;919;48.274;12.292;2023-06-14T11:09:46;24.20;99.90
1800;DHT22;919;48.274;12.292;2023-06-14T11:12:20;24.60;99.90
1800;DHT22;919;48.274;12.292;2023-06-14T11:14:47;25.00;99.90
1800;DHT22;919;48.274;12.292;2023-06-14T11:17:14;25.20;99.90
1800;DHT22;919;48.274;12.292;2023-06-14T11:19:41;25.60;99.90
1800;DHT22;919;48.274;12.292;2023-06-14T11:22:09;25.80;99.00
1800;DHT22;919;48.274;12.292;2023-06-14T11:24:36;25.90;99.50
1800;DHT22;919;48.274;12.292;2023-06-14T11:27:03;26.00;99.90
1800;DHT22;919;48.274;12.292;2023-06-14T11:29:29;26.10;99.90
1800;DHT22;919;48.274;12.292;2023-06-14T11:31:57;26.30;99.90
1800;DHT22;919;48.274;12.292;2023-06-14T11:34:24;26.00;98.70
1800;DHT22;919;48.274;12.292;2023-06-14T11:36:51;25.50;98.50
1800;DHT22;919;48.274;12.292;2023-06-14T11:39:24;25.60;98.00
1800;DHT22;919;48.274;12.292;2023-06-14T11:41:51;25.90;97.40
1800;DHT22;919;48.274;12.292;2023-06-14T11:44:17;26.20;95.40
1800;DHT22;919;48.274;12.292;2023-06-14T11:46:44;26.50;99.10
1800;DHT22;919;48.274;12.292;2023-06-14T11:49:11;26.80;99.30
1800;DHT22;919;48.274;12.292;2023-06-14T11:51:38;26.00;97.50
1800;DHT22;919;48.274;12.292;2023-06-14T11:54:06;24.80;96.00
1800;DHT22;919;48.274;12.292;2023-06-14T11:56:36;23.60;97.40
1800;DHT22;919;48.274;12.292;2023-06-14T11:59:03;23.10;98.20
1800;DHT22;919;48.274;12.292;2023-06-14T12:01:31;22.60;97.80
1800;DHT22;919;48.274;12.292;2023-06-14T12:03:59;22.60;97.20
1800;DHT22;919;48.274;12.292;2023-06-14T12:06:26;22.80;99.40
1800;DHT22;919;48.274;12.292;2023-06-14T12:08:58;23.30;99.90
1800;DHT22;919;48.274;12.292;2023-06-14T12:11:31;23.50;99.90
1800;DHT22;919;48.274;12.292;2023-06-14T12:13:59;24.00;99.90
1800;DHT22;919;48.274;12.292;2023-06-14T12:16:31;24.40;99.20
1800;DHT22;919;48.274;12.292;2023-06-14T12:20:31;25.20;99.90
1800;DHT22;919;48.274;12.292;2023-06-14T12:22:59;25.60;98.60
1800;DHT22;919;48.274;12.292;2023-06-14T12:25:28;25.50;97.60
1800;DHT22;919;48.274;12.292;2023-06-14T12:27:57;25.20;95.40
1800;DHT22;919;48.274;12.292;2023-06-14T12:32:51;25.40;96.10
1800;DHT22;919;48.274;12.292;2023-06-14T12:35:18;25.90;96.90
1800;DHT22;919;48.274;12.292;2023-06-14T12:37:45;26.10;93.40
1800;DHT22;919;48.274;12.292;2023-06-14T12:40:12;26.10;93.80
1800;DHT22;919;48.274;12.292;2023-06-14T12:42:39;25.90;91.70
1800;DHT22;919;48.274;12.292;2023-06-14T12:45:06;25.90;92.40
1800;DHT22;919;48.274;12.292;2023-06-14T12:47:33;25.80;92.00
1800;DHT22;919;48.274;12.292;2023-06-14T12:50:03;26.10;93.30
1800;DHT22;919;48.274;12.292;2023-06-14T12:52:29;26.60;94.20
1800;DHT22;919;48.274;12.292;2023-06-14T12:54:56;26.70;96.20
1800;DHT22;919;48.274;12.292;2023-06-14T12:57:23;26.40;95.80
1800;DHT22;919;48.274;12.292;2023-06-14T12:59:50;26.50;95.10
1800;DHT22;919;48.274;12.292;2023-06-14T13:02:18;26.80;93.60
1800;DHT22;919;48.274;12.292;2023-06-14T13:04:46;26.50;94.80
1800;DHT22;919;48.274;12.292;2023-06-14T13:07:14;26.80;94.40
1800;DHT22;919;48.274;12.292;2023-06-14T13:09:41;27.10;92.90
1800;DHT22;919;48.274;12.292;2023-06-14T13:12:09;27.50;92.70
1800;DHT22;919;48.274;12.292;2023-06-14T13:14:37;27.40;91.90
1800;DHT22;919;48.274;12.292;2023-06-14T13:17:04;26.80;91.50
1800;DHT22;919;48.274;12.292;2023-06-14T13:19:31;27.00;89.40
1800;DHT22;919;48.274;12.292;2023-06-14T13:21:58;27.30;91.60
1800;DHT22;919;48.274;12.292;2023-06-14T13:24:26;27.30;91.10
1800;DHT22;919;48.274;12.292;2023-06-14T13:26:53;26.70;89.80
1800;DHT22;919;48.274;12.292;2023-06-14T13:29:20;25.80;90.20
1800;DHT22;919;48.274;12.292;2023-06-14T13:31:47;25.00;90.60
1800;DHT22;919;48.274;12.292;2023-06-14T13:34:14;24.40;84.30
1800;DHT22;919;48.274;12.292;2023-06-14T13:36:40;24.20;90.10
1800;DHT22;919;48.274;12.292;2023-06-14T13:39:07;24.10;90.40
1800;DHT22;919;48.274;12.292;2023-06-14T13:41:35;24.60;92.50
1800;DHT22;919;48.274;12.292;2023-06-14T13:44:02;25.40;90.70
1800;DHT22;919;48.274;12.292;2023-06-14T13:46:30;26.20;91.30
1800;DHT22;919;48.274;12.292;2023-06-14T13:48:57;27.10;90.90
1800;DHT22;919;48.274;12.292;2023-06-14T13:51:24;27.00;87.80
1800;DHT22;919;48.274;12.292;2023-06-14T13:53:52;27.00;90.00
1800;DHT22;919;48.274;12.292;2023-06-14T13:56:20;27.10;92.00
1800;DHT22;919;48.274;12.292;2023-06-14T13:58:49;26.40;91.80
1800;DHT22;919;48.274;12.292;2023-06-14T14:01:16;25.10;91.80
1800;DHT22;919;48.274;12.292;2023-06-14T14:03:45;24.50;93.10
1800;DHT22;919;48.274;12.292;2023-06-14T14:06:12;24.00;93.40
1800;DHT22;919;48.274;12.292;2023-06-14T14:08:39;23.70;94.80
1800;DHT22;919;48.274;12.292;2023-06-14T14:11:09;23.50;95.00
1800;DHT22;919;48.274;12.292;2023-06-14T14:13:36;23.20;95.20
1800;DHT22;919;48.274;12.292;2023-06-14T14:16:05;23.60;95.50
1800;DHT22;919;48.274;12.292;2023-06-14T14:18:32;24.00;94.50
1800;DHT22;919;48.274;12.292;2023-06-14T14:20:59;24.20;96.00
1800;DHT22;919;48.274;12.292;2023-06-14T14:23:27;24.60;95.20
1800;DHT22;919;48.274;12.292;2023-06-14T14:25:55;24.80;95.20
1800;DHT22;919;48.274;12.292;2023-06-14T14:28:22;25.10;94.50
1800;DHT22;919;48.274;12.292;2023-06-14T14:30:49;25.00;93.80
1800;DHT22;919;48.274;12.292;2023-06-14T14:33:17;25.00;94.90
1800;DHT22;919;48.274;12.292;2023-06-14T14:35:44;24.90;93.40
1800;DHT22;919;48.274;12.292;2023-06-14T14:38:11;24.70;92.90
1800;DHT22;919;48.274;12.292;2023-06-14T14:40:38;24.80;93.00
1800;DHT22;919;48.274;12.292;2023-06-14T14:43:05;24.80;92.10
1800;DHT22;919;48.274;12.292;2023-06-14T14:45:32;25.20;93.40
1800;DHT22;919;48.274;12.292;2023-06-14T14:48:01;25.30;92.50
1800;DHT22;919;48.274;12.292;2023-06-14T14:50:29;25.10;92.70
1800;DHT22;919;48.274;12.292;2023-06-14T14:52:55;25.30;94.00
1800;DHT22;919;48.274;12.292;2023-06-14T14:55:22;25.70;92.10
1800;DHT22;919;48.274;12.292;2023-06-14T14:57:50;25.90;93.60
1800;DHT22;919;48.274;12.292;2023-06-14T15:00:18;26.30;93.60
1800;DHT22;919;48.274;12.292;2023-06-14T15:02:46;26.30;91.10
1800;DHT22;919;48.274;12.292;2023-06-14T15:05:13;26.10;93.40
1800;DHT22;919;48.274;12.292;2023-06-14T15:07:42;25.80;91.10
1800;DHT22;919;48.274;12.292;2023-06-14T15:10:10;25.70;91.40
1800;DHT22;919;48.274;12.292;2023-06-14T15:12:38;25.70;90.70
1800;DHT22;919;48.274;12.292;2023-06-14T15:15:06;25.80;87.50
1800;DHT22;919;48.274;12.292;2023-06-14T15:17:34;25.70;90.80
1800;DHT22;919;48.274;12.292;2023-06-14T15:20:02;25.70;91.10
1800;DHT22;919;48.274;12.292;2023-06-14T15:22:32;25.80;89.70
1800;DHT22;919;48.274;12.292;2023-06-14T15:25:01;26.00;93.00
1800;DHT22;919;48.274;12.292;2023-06-14T15:27:29;26.30;92.40
1800;DHT22;919;48.274;12.292;2023-06-14T15:29:59;26.10;90.70
1800;DHT22;919;48.274;12.292;2023-06-14T15:32:26;25.40;88.50
1800;DHT22;919;48.274;12.292;2023-06-14T15:34:53;25.70;90.00
1800;DHT22;919;48.274;12.292;2023-06-14T15:37:20;25.80;89.30
1800;DHT22;919;48.274;12.292;2023-06-14T15:39:47;26.00;86.80
1800;DHT22;919;48.274;12.292;2023-06-14T15:42:16;26.10;87.00
1800;DHT22;919;48.274;12.292;2023-06-14T15:44:43;26.00;90.00
1800;DHT22;919;48.274;12.292;2023-06-14T15:47:10;25.80;90.00
1800;DHT22;919;48.274;12.292;2023-06-14T15:49:37;25.80;89.10
1800;DHT22;919;48.274;12.292;2023-06-14T15:52:05;25.60;86.60
1800;DHT22;919;48.274;12.292;2023-06-14T15:54:33;25.50;90.00
1800;DHT22;919;48.274;12.292;2023-06-14T15:57:00;25.40;90.20
1800;DHT22;919;48.274;12.292;2023-06-14T15:59:29;24.90;89.50
1800;DHT22;919;48.274;12.292;2023-06-14T16:01:56;24.30;90.60
1800;DHT22;919;48.274;12.292;2023-06-14T16:04:23;23.70;90.30
1800;DHT22;919;48.274;12.292;2023-06-14T16:06:50;23.50;93.00
1800;DHT22;919;48.274;12.292;2023-06-14T16:09:17;23.40;92.70
1800;DHT22;919;48.274;12.292;2023-06-14T16:11:43;23.70;91.00
1800;DHT22;919;48.274;12.292;2023-06-14T16:14:12;23.80;91.10
1800;DHT22;919;48.274;12.292;2023-06-14T16:16:40;23.50;91.30